sensor_id;sensor_type;location;lat;lon;timestamp;pressure;altitude;pressure_sealevel;temperature;humidity
6433;BME280;3249;42.690;23.260;2022-10-31T00:00:57;94916.97;;;13.64;92.11
6433;BME280;3249;42.690;23.260;2022-10-31T00:03:22;94927.16;;;13.77;91.36
6433;BME280;3249;42.690;23.260;2022-10-31T00:05:49;94926.47;;;13.81;90.99
6433;BME280;3249;42.690;23.260;2022-10-31T00:08:16;94929.59;;;13.72;91.62
6433;BME280;3249;42.690;23.260;2022-10-31T00:10:43;94932.16;;;13.42;96.50
6433;BME280;3249;42.690;23.260;2022-10-31T00:13:10;94931.94;;;13.08;99.81
6433;BME280;3249;42.690;23.260;2022-10-31T00:15:37;94926.78;;;13.26;99.70
6433;BME280;3249;42.690;23.260;2022-10-31T00:18:04;94930.38;;;13.43;97.88
6433;BME280;3249;42.690;23.260;2022-10-31T00:20:30;94933.81;;;13.37;99.01
6433;BME280;3249;42.690;23.260;2022-10-31T00:22:59;94932.94;;;13.43;98.87
6433;BME280;3249;42.690;23.260;2022-10-31T00:25:26;94928.94;;;13.47;98.18
6433;BME280;3249;42.690;23.260;2022-10-31T00:27:52;94923.16;;;13.45;99.06
6433;BME280;3249;42.690;23.260;2022-10-31T00:30:17;94921.97;;;13.47;98.91
6433;BME280;3249;42.690;23.260;2022-10-31T00:32:42;94920.81;;;13.43;99.46
6433;BME280;3249;42.690;23.260;2022-10-31T00:35:08;94908.97;;;13.36;98.64
6433;BME280;3249;42.690;23.260;2022-10-31T00:37:33;94899.84;;;13.33;99.03
6433;BME280;3249;42.690;23.260;2022-10-31T00:39:59;94914.41;;;13.46;98.00
6433;BME280;3249;42.690;23.260;2022-10-31T00:42:24;94895.69;;;13.32;97.98
6433;BME280;3249;42.690;23.260;2022-10-31T00:44:49;94918.56;;;13.47;97.94
6433;BME280;3249;42.690;23.260;2022-10-31T00:47:15;94891.66;;;13.36;98.23
6433;BME280;3249;42.690;23.260;2022-10-31T00:49:40;94911.03;;;13.45;98.61
6433;BME280;3249;42.690;23.260;2022-10-31T00:52:06;94907.09;;;13.43;98.79
6433;BME280;3249;42.690;23.260;2022-10-31T00:54:31;94903.91;;;13.41;98.54
6433;BME280;3249;42.690;23.260;2022-10-31T00:56:57;94913.06;;;13.43;99.02
6433;BME280;3249;42.690;23.260;2022-10-31T00:59:22;94911.13;;;13.39;99.21
6433;BME280;3249;42.690;23.260;2022-10-31T01:01:48;94920.44;;;13.40;99.85
6433;BME280;3249;42.690;23.260;2022-10-31T01:04:13;94899.34;;;13.25;100.00
6433;BME280;3249;42.690;23.260;2022-10-31T01:06:38;94917.94;;;13.33;100.00
6433;BME280;3249;42.690;23.260;2022-10-31T01:09:04;94909.69;;;13.25;100.00
6433;BME280;3249;42.690;23.260;2022-10-31T01:11:29;94919.59;;;13.28;100.00
6433;BME280;3249;42.690;23.260;2022-10-31T01:13:54;94926.59;;;13.27;100.00
6433;BME280;3249;42.690;23.260;2022-10-31T01:16:23;94924.56;;;13.29;100.00
6433;BME280;3249;42.690;23.260;2022-10-31T01:18:50;94925.66;;;13.22;100.00
6433;BME280;3249;42.690;23.260;2022-10-31T01:21:20;94927.22;;;13.23;100.00
6433;BME280;3249;42.690;23.260;2022-10-31T01:23:47;94905.69;;;13.11;100.00
6433;BME280;3249;42.690;23.260;2022-10-31T01:26:16;94929.38;;;13.26;100.00
6433;BME280;3249;42.690;23.260;2022-10-31T01:28:56;94931.09;;;13.32;100.00
6433;BME280;3249;42.690;23.260;2022-10-31T01:31:25;94927.66;;;13.38;100.00
6433;BME280;3249;42.690;23.260;2022-10-31T01:33:51;94925.19;;;13.43;100.00
6433;BME280;3249;42.690;23.260;2022-10-31T01:38:45;94930.06;;;13.51;100.00
6433;BME280;3249;42.690;23.260;2022-10-31T01:41:13;94918.38;;;13.48;100.00
6433;BME280;3249;42.690;23.260;2022-10-31T01:43:52;94929.13;;;13.63;100.00
6433;BME280;3249;42.690;23.260;2022-10-31T01:48:53;94926.22;;;13.71;100.00
6433;BME280;3249;42.690;23.260;2022-10-31T01:51:24;94920.38;;;13.76;100.00
6433;BME280;3249;42.690;23.260;2022-10-31T01:53:53;94901.59;;;13.69;100.00
6433;BME280;3249;42.690;23.260;2022-10-31T01:56:20;94928.00;;;13.89;100.00
6433;BME280;3249;42.690;23.260;2022-10-31T01:58:46;94930.00;;;13.87;100.00
6433;BME280;3249;42.690;23.260;2022-10-31T02:01:13;94932.84;;;13.97;100.00
6433;BME280;3249;42.690;23.260;2022-10-31T02:03:40;94932.59;;;13.98;100.00
6433;BME280;3249;42.690;23.260;2022-10-31T02:06:09;94933.75;;;14.02;100.00
6433;BME280;3249;42.690;23.260;2022-10-31T02:08:37;94927.22;;;14.00;100.00
6433;BME280;3249;42.690;23.260;2022-10-31T02:11:05;94922.63;;;14.02;100.00
6433;BME280;3249;42.690;23.260;2022-10-31T02:13:33;94928.03;;;14.12;100.00
6433;BME280;3249;42.690;23.260;2022-10-31T02:15:59;94906.28;;;14.02;100.00
6433;BME280;3249;42.690;23.260;2022-10-31T02:18:27;94923.53;;;14.08;100.00
6433;BME280;3249;42.690;23.260;2022-10-31T02:21:25;94914.41;;;14.05;100.00
6433;BME280;3249;42.690;23.260;2022-10-31T02:37:48;94943.34;;;14.14;100.00
6433;BME280;3249;42.690;23.260;2022-10-31T02:40:25;94939.41;;;14.11;100.00
6433;BME280;3249;42.690;23.260;2022-10-31T02:42:59;94948.06;;;14.05;100.00
6433;BME280;3249;42.690;23.260;2022-10-31T02:48:17;94946.09;;;13.89;100.00
6433;BME280;3249;42.690;23.260;2022-10-31T02:50:47;94948.31;;;13.85;100.00
6433;BME280;3249;42.690;23.260;2022-10-31T02:53:15;94950.78;;;13.80;100.00
6433;BME280;3249;42.690;23.260;2022-10-31T02:55:51;94924.47;;;13.54;100.00
6433;BME280;3249;42.690;23.260;2022-10-31T02:58:21;94937.53;;;13.59;100.00
6433;BME280;3249;42.690;23.260;2022-10-31T03:06:44;94948.69;;;13.59;100.00
6433;BME280;3249;42.690;23.260;2022-10-31T03:09:12;94962.53;;;13.65;100.00
6433;BME280;3249;42.690;23.260;2022-10-31T03:11:58;94964.38;;;13.76;100.00
6433;BME280;3249;42.690;23.260;2022-10-31T03:14:42;94962.59;;;13.76;100.00
6433;BME280;3249;42.690;23.260;2022-10-31T03:17:15;94960.81;;;13.41;100.00
6433;BME280;3249;42.690;23.260;2022-10-31T03:19:47;94962.53;;;13.29;100.00
6433;BME280;3249;42.690;23.260;2022-10-31T03:22:20;94956.09;;;13.02;100.00
6433;BME280;3249;42.690;23.260;2022-10-31T03:24:48;94932.06;;;12.95;100.00
6433;BME280;3249;42.690;23.260;2022-10-31T03:27:20;94959.09;;;12.99;100.00
6433;BME280;3249;42.690;23.260;2022-10-31T03:29:49;94963.03;;;13.01;100.00
6433;BME280;3249;42.690;23.260;2022-10-31T03:32:25;94954.44;;;12.83;100.00
6433;BME280;3249;42.690;23.260;2022-10-31T03:34:55;94966.94;;;12.86;100.00
6433;BME280;3249;42.690;23.260;2022-10-31T03:37:24;94979.69;;;12.81;100.00
6433;BME280;3249;42.690;23.260;2022-10-31T03:39:53;94971.09;;;12.87;100.00
6433;BME280;3249;42.690;23.260;2022-10-31T03:42:29;94968.88;;;12.90;100.00
6433;BME280;3249;42.690;23.260;2022-10-31T03:45:21;94974.84;;;12.91;100.00
6433;BME280;3249;42.690;23.260;2022-10-31T03:47:48;94971.25;;;12.92;100.00
6433;BME280;3249;42.690;23.260;2022-10-31T03:50:14;94981.19;;;12.46;100.00
6433;BME280;3249;42.690;23.260;2022-10-31T03:52:48;94967.44;;;12.21;100.00
6433;BME280;3249;42.690;23.260;2022-10-31T03:55:26;94977.31;;;12.30;100.00
6433;BME280;3249;42.690;23.260;2022-10-31T03:58:02;94977.75;;;12.21;100.00
6433;BME280;3249;42.690;23.260;2022-10-31T04:00:30;94987.22;;;12.33;100.00
6433;BME280;3249;42.690;23.260;2022-10-31T04:03:01;94990.84;;;12.26;100.00
6433;BME280;3249;42.690;23.260;2022-10-31T04:05:30;94982.56;;;11.80;100.00
6433;BME280;3249;42.690;23.260;2022-10-31T04:07:57;94988.94;;;11.77;100.00
6433;BME280;3249;42.690;23.260;2022-10-31T04:10:25;94983.28;;;11.49;100.00
6433;BME280;3249;42.690;23.260;2022-10-31T04:12:57;94964.00;;;11.58;100.00
6433;BME280;3249;42.690;23.260;2022-10-31T04:15:26;94990.69;;;11.83;100.00
6433;BME280;3249;42.690;23.260;2022-10-31T04:17:54;94971.97;;;11.94;100.00
6433;BME280;3249;42.690;23.260;2022-10-31T04:20:32;94990.63;;;11.90;100.00
6433;BME280;3249;42.690;23.260;2022-10-31T04:22:59;94962.03;;;11.60;100.00
6433;BME280;3249;42.690;23.260;2022-10-31T04:25:24;94990.25;;;11.93;100.00
6433;BME280;3249;42.690;23.260;2022-10-31T04:27:49;94989.34;;;12.12;100.00
6433;BME280;3249;42.690;23.260;2022-10-31T04:30:15;94980.56;;;12.19;100.00
6433;BME280;3249;42.690;23.260;2022-10-31T04:32:40;94997.69;;;12.38;100.00
6433;BME280;3249;42.690;23.260;2022-10-31T04:35:06;94996.03;;;12.19;100.00
6433;BME280;3249;42.690;23.260;2022-10-31T04:37:31;94965.16;;;12.06;100.00
6433;BME280;3249;42.690;23.260;2022-10-31T04:39:57;94998.34;;;12.34;100.00
6433;BME280;3249;42.690;23.260;2022-10-31T04:42:22;94989.38;;;11.68;100.00
6433;BME280;3249;42.690;23.260;2022-10-31T04:44:47;94991.19;;;11.61;100.00
6433;BME280;3249;42.690;23.260;2022-10-31T04:47:13;94992.69;;;11.81;100.00
6433;BME280;3249;42.690;23.260;2022-10-31T04:49:38;94990.25;;;11.93;100.00
6433;BME280;3249;42.690;23.260;2022-10-31T04:52:04;94995.81;;;11.90;100.00
6433;BME280;3249;42.690;23.260;2022-10-31T04:54:29;94996.16;;;12.00;100.00
6433;BME280;3249;42.690;23.260;2022-10-31T04:56:54;95001.69;;;12.03;100.00
6433;BME280;3249;42.690;23.260;2022-10-31T04:59:20;94987.41;;;12.01;100.00
6433;BME280;3249;42.690;23.260;2022-10-31T05:01:45;95008.72;;;12.21;100.00
6433;BME280;3249;42.690;23.260;2022-10-31T05:04:10;95004.00;;;12.18;100.00
6433;BME280;3249;42.690;23.260;2022-10-31T05:06:36;94989.06;;;11.89;100.00
6433;BME280;3249;42.690;23.260;2022-10-31T05:09:01;95010.94;;;11.80;100.00
6433;BME280;3249;42.690;23.260;2022-10-31T05:11:27;95015.78;;;11.50;100.00
6433;BME280;3249;42.690;23.260;2022-10-31T05:13:52;95017.34;;;11.58;100.00
6433;BME280;3249;42.690;23.260;2022-10-31T05:16:18;95011.41;;;11.64;100.00
6433;BME280;3249;42.690;23.260;2022-10-31T05:18:43;95016.97;;;11.61;100.00
6433;BME280;3249;42.690;23.260;2022-10-31T05:21:08;95022.66;;;11.76;100.00
6433;BME280;3249;42.690;23.260;2022-10-31T05:23:34;95016.44;;;11.90;100.00
6433;BME280;3249;42.690;23.260;2022-10-31T05:25:59;95025.84;;;11.71;100.00
6433;BME280;3249;42.690;23.260;2022-10-31T05:28:25;95016.66;;;11.82;100.00
6433;BME280;3249;42.690;23.260;2022-10-31T05:30:50;95018.75;;;11.67;100.00
6433;BME280;3249;42.690;23.260;2022-10-31T05:33:15;95020.75;;;11.52;100.00
6433;BME280;3249;42.690;23.260;2022-10-31T05:35:41;95027.47;;;11.53;100.00
6433;BME280;3249;42.690;23.260;2022-10-31T05:38:06;95019.81;;;11.27;100.00
6433;BME280;3249;42.690;23.260;2022-10-31T05:40:32;95034.47;;;11.33;100.00
6433;BME280;3249;42.690;23.260;2022-10-31T05:42:57;95029.94;;;11.15;100.00
6433;BME280;3249;42.690;23.260;2022-10-31T05:45:24;95043.00;;;11.40;100.00
6433;BME280;3249;42.690;23.260;2022-10-31T05:47:54;95029.50;;;11.31;100.00
6433;BME280;3249;42.690;23.260;2022-10-31T05:50:20;95039.41;;;11.41;100.00
6433;BME280;3249;42.690;23.260;2022-10-31T05:52:46;95016.22;;;11.41;100.00
6433;BME280;3249;42.690;23.260;2022-10-31T05:55:12;95028.06;;;11.68;100.00
6433;BME280;3249;42.690;23.260;2022-10-31T05:57:37;95041.22;;;11.97;100.00
6433;BME280;3249;42.690;23.260;2022-10-31T06:00:04;95046.13;;;12.12;100.00
6433;BME280;3249;42.690;23.260;2022-10-31T06:02:30;95048.34;;;12.08;100.00
6433;BME280;3249;42.690;23.260;2022-10-31T06:05:00;95053.13;;;11.98;100.00
6433;BME280;3249;42.690;23.260;2022-10-31T06:07:25;95031.44;;;12.12;100.00
6433;BME280;3249;42.690;23.260;2022-10-31T06:09:50;95053.00;;;12.24;100.00
6433;BME280;3249;42.690;23.260;2022-10-31T06:12:16;95059.19;;;12.17;100.00
6433;BME280;3249;42.690;23.260;2022-10-31T06:14:41;95038.94;;;12.20;100.00
6433;BME280;3249;42.690;23.260;2022-10-31T06:17:07;95066.50;;;12.57;100.00
6433;BME280;3249;42.690;23.260;2022-10-31T06:19:32;95075.59;;;12.66;100.00
6433;BME280;3249;42.690;23.260;2022-10-31T06:21:57;95085.63;;;12.81;100.00
6433;BME280;3249;42.690;23.260;2022-10-31T06:24:23;95068.09;;;12.58;100.00
6433;BME280;3249;42.690;23.260;2022-10-31T06:26:48;95071.38;;;12.72;100.00
6433;BME280;3249;42.690;23.260;2022-10-31T06:29:13;95088.34;;;12.92;100.00
6433;BME280;3249;42.690;23.260;2022-10-31T06:31:39;95096.00;;;13.05;100.00
6433;BME280;3249;42.690;23.260;2022-10-31T06:34:04;95050.34;;;12.93;100.00
6433;BME280;3249;42.690;23.260;2022-10-31T06:36:30;95081.94;;;13.01;100.00
6433;BME280;3249;42.690;23.260;2022-10-31T06:38:55;95062.97;;;12.52;100.00
6433;BME280;3249;42.690;23.260;2022-10-31T06:41:20;95089.91;;;12.62;100.00
6433;BME280;3249;42.690;23.260;2022-10-31T06:43:46;95096.50;;;12.89;100.00
6433;BME280;3249;42.690;23.260;2022-10-31T06:46:12;95101.31;;;12.86;100.00
6433;BME280;3249;42.690;23.260;2022-10-31T06:48:37;95098.72;;;12.86;100.00
6433;BME280;3249;42.690;23.260;2022-10-31T06:51:03;95102.59;;;13.01;100.00
6433;BME280;3249;42.690;23.260;2022-10-31T06:53:28;95099.50;;;12.86;100.00
6433;BME280;3249;42.690;23.260;2022-10-31T06:55:57;95101.63;;;12.96;100.00
6433;BME280;3249;42.690;23.260;2022-10-31T06:58:23;95098.44;;;13.00;100.00
6433;BME280;3249;42.690;23.260;2022-10-31T07:00:48;95098.66;;;12.99;100.00
6433;BME280;3249;42.690;23.260;2022-10-31T07:03:15;95103.00;;;12.98;100.00
6433;BME280;3249;42.690;23.260;2022-10-31T07:05:41;95105.53;;;13.05;100.00
6433;BME280;3249;42.690;23.260;2022-10-31T07:08:08;95099.53;;;13.11;100.00
6433;BME280;3249;42.690;23.260;2022-10-31T07:10:35;95099.28;;;13.43;100.00
6433;BME280;3249;42.690;23.260;2022-10-31T07:13:03;95099.56;;;13.53;100.00
6433;BME280;3249;42.690;23.260;2022-10-31T07:15:30;95120.41;;;13.58;100.00
6433;BME280;3249;42.690;23.260;2022-10-31T07:18:02;95100.53;;;13.77;100.00
6433;BME280;3249;42.690;23.260;2022-10-31T07:20:28;95103.84;;;14.02;100.00
6433;BME280;3249;42.690;23.260;2022-10-31T07:22:53;95110.66;;;14.33;100.00
6433;BME280;3249;42.690;23.260;2022-10-31T07:25:19;95106.72;;;14.30;100.00
6433;BME280;3249;42.690;23.260;2022-10-31T07:27:45;95104.88;;;14.49;100.00
6433;BME280;3249;42.690;23.260;2022-10-31T07:30:11;95101.72;;;14.76;100.00
6433;BME280;3249;42.690;23.260;2022-10-31T07:32:41;95098.25;;;14.94;100.00
6433;BME280;3249;42.690;23.260;2022-10-31T07:35:09;95062.69;;;14.71;100.00
6433;BME280;3249;42.690;23.260;2022-10-31T07:37:35;95097.13;;;14.90;100.00
6433;BME280;3249;42.690;23.260;2022-10-31T07:40:02;95102.13;;;15.14;100.00
6433;BME280;3249;42.690;23.260;2022-10-31T07:42:27;95092.66;;;15.31;100.00
6433;BME280;3249;42.690;23.260;2022-10-31T07:44:53;95096.78;;;15.50;100.00
6433;BME280;3249;42.690;23.260;2022-10-31T07:47:18;95091.91;;;15.31;100.00
6433;BME280;3249;42.690;23.260;2022-10-31T07:49:43;95094.25;;;15.09;100.00
6433;BME280;3249;42.690;23.260;2022-10-31T07:52:09;95099.03;;;15.35;100.00
6433;BME280;3249;42.690;23.260;2022-10-31T07:54:34;95092.50;;;15.56;100.00
6433;BME280;3249;42.690;23.260;2022-10-31T07:57:00;95097.91;;;15.43;100.00
6433;BME280;3249;42.690;23.260;2022-10-31T07:59:25;95092.22;;;15.23;100.00
6433;BME280;3249;42.690;23.260;2022-10-31T08:01:52;95078.06;;;15.48;100.00
6433;BME280;3249;42.690;23.260;2022-10-31T08:04:18;95087.72;;;15.76;100.00
6433;BME280;3249;42.690;23.260;2022-10-31T08:06:43;95099.00;;;15.93;100.00
6433;BME280;3249;42.690;23.260;2022-10-31T08:09:08;95088.06;;;15.79;100.00
6433;BME280;3249;42.690;23.260;2022-10-31T08:11:34;95102.25;;;16.00;100.00
6433;BME280;3249;42.690;23.260;2022-10-31T08:13:59;95102.69;;;16.08;100.00
6433;BME280;3249;42.690;23.260;2022-10-31T08:16:24;95091.47;;;15.68;100.00
6433;BME280;3249;42.690;23.260;2022-10-31T08:18:50;95099.91;;;15.75;100.00
6433;BME280;3249;42.690;23.260;2022-10-31T08:21:15;95100.69;;;15.87;100.00
6433;BME280;3249;42.690;23.260;2022-10-31T08:23:41;95102.16;;;15.95;100.00
6433;BME280;3249;42.690;23.260;2022-10-31T08:26:06;95107.19;;;16.13;100.00
6433;BME280;3249;42.690;23.260;2022-10-31T08:28:32;95104.09;;;16.39;100.00
6433;BME280;3249;42.690;23.260;2022-10-31T08:30:58;95104.06;;;16.50;100.00
6433;BME280;3249;42.690;23.260;2022-10-31T08:33:24;95101.97;;;16.64;100.00
6433;BME280;3249;42.690;23.260;2022-10-31T08:35:49;95103.53;;;16.65;100.00
6433;BME280;3249;42.690;23.260;2022-10-31T08:38:15;95102.94;;;16.46;100.00
6433;BME280;3249;42.690;23.260;2022-10-31T08:40:41;95100.22;;;16.53;100.00
6433;BME280;3249;42.690;23.260;2022-10-31T08:43:14;95105.81;;;16.73;100.00
6433;BME280;3249;42.690;23.260;2022-10-31T08:45:41;95111.69;;;16.68;100.00
6433;BME280;3249;42.690;23.260;2022-10-31T08:48:12;95102.13;;;16.57;100.00
6433;BME280;3249;42.690;23.260;2022-10-31T08:50:38;95097.38;;;16.54;100.00
6433;BME280;3249;42.690;23.260;2022-10-31T08:53:17;95108.97;;;16.91;100.00
6433;BME280;3249;42.690;23.260;2022-10-31T08:55:43;95090.81;;;16.80;100.00
6433;BME280;3249;42.690;23.260;2022-10-31T08:58:15;95104.00;;;17.06;100.00
6433;BME280;3249;42.690;23.260;2022-10-31T09:00:41;95091.81;;;17.07;100.00
6433;BME280;3249;42.690;23.260;2022-10-31T09:03:11;95108.16;;;17.35;99.17
6433;BME280;3249;42.690;23.260;2022-10-31T09:05:37;95110.44;;;17.48;99.20
6433;BME280;3249;42.690;23.260;2022-10-31T09:08:04;95110.63;;;17.58;98.01
6433;BME280;3249;42.690;23.260;2022-10-31T09:10:32;95111.31;;;17.70;96.63
6433;BME280;3249;42.690;23.260;2022-10-31T09:13:06;95104.09;;;17.77;96.21
6433;BME280;3249;42.690;23.260;2022-10-31T09:15:35;95113.97;;;17.75;96.77
6433;BME280;3249;42.690;23.260;2022-10-31T09:18:01;95101.91;;;17.69;96.60
6433;BME280;3249;42.690;23.260;2022-10-31T09:20:28;95106.69;;;17.77;95.44
6433;BME280;3249;42.690;23.260;2022-10-31T09:23:01;95086.44;;;17.79;94.60
6433;BME280;3249;42.690;23.260;2022-10-31T09:25:28;95106.81;;;18.04;92.53
6433;BME280;3249;42.690;23.260;2022-10-31T09:27:58;95101.03;;;18.02;93.47
6433;BME280;3249;42.690;23.260;2022-10-31T09:30:24;95095.97;;;18.12;93.09
6433;BME280;3249;42.690;23.260;2022-10-31T09:33:01;95097.97;;;18.27;90.25
6433;BME280;3249;42.690;23.260;2022-10-31T09:35:27;95098.28;;;18.52;88.17
6433;BME280;3249;42.690;23.260;2022-10-31T09:37:54;95101.59;;;18.69;85.08
6433;BME280;3249;42.690;23.260;2022-10-31T09:40:20;95105.50;;;18.45;86.95
6433;BME280;3249;42.690;23.260;2022-10-31T09:45:31;95089.78;;;18.61;86.78
6433;BME280;3249;42.690;23.260;2022-10-31T09:48:01;95093.44;;;18.60;86.08
6433;BME280;3249;42.690;23.260;2022-10-31T09:50:34;95096.34;;;18.95;84.14
6433;BME280;3249;42.690;23.260;2022-10-31T09:53:07;95082.34;;;19.01;80.37
6433;BME280;3249;42.690;23.260;2022-10-31T09:55:39;95099.72;;;18.91;80.78
6433;BME280;3249;42.690;23.260;2022-10-31T09:58:30;95091.50;;;19.04;79.27
6433;BME280;3249;42.690;23.260;2022-10-31T10:00:58;95092.91;;;19.16;77.23
6433;BME280;3249;42.690;23.260;2022-10-31T10:03:45;95090.97;;;19.02;76.01
6433;BME280;3249;42.690;23.260;2022-10-31T10:06:21;95092.97;;;18.95;74.88
6433;BME280;3249;42.690;23.260;2022-10-31T10:08:47;95090.09;;;19.23;72.67
6433;BME280;3249;42.690;23.260;2022-10-31T10:17:02;95079.09;;;19.21;71.25
6433;BME280;3249;42.690;23.260;2022-10-31T10:22:32;95050.28;;;19.37;70.33
6433;BME280;3249;42.690;23.260;2022-10-31T10:27:42;95067.50;;;19.80;67.28
6433;BME280;3249;42.690;23.260;2022-10-31T10:30:30;95066.78;;;19.89;65.07
6433;BME280;3249;42.690;23.260;2022-10-31T10:33:02;95070.22;;;19.95;63.32
6433;BME280;3249;42.690;23.260;2022-10-31T10:35:34;95064.75;;;20.06;62.62
6433;BME280;3249;42.690;23.260;2022-10-31T10:38:22;95047.56;;;20.10;61.99
6433;BME280;3249;42.690;23.260;2022-10-31T10:40:49;95056.25;;;20.26;62.11
6433;BME280;3249;42.690;23.260;2022-10-31T10:43:36;95047.59;;;20.15;61.25
6433;BME280;3249;42.690;23.260;2022-10-31T10:49:29;95018.84;;;20.15;62.50
6433;BME280;3249;42.690;23.260;2022-10-31T10:57:07;95033.53;;;20.31;59.62
6433;BME280;3249;42.690;23.260;2022-10-31T10:59:37;95041.94;;;20.53;59.74
6433;BME280;3249;42.690;23.260;2022-10-31T11:02:03;95034.63;;;20.50;57.41
6433;BME280;3249;42.690;23.260;2022-10-31T11:04:34;95039.34;;;20.63;57.62
6433;BME280;3249;42.690;23.260;2022-10-31T11:09:26;95033.06;;;20.54;56.55
6433;BME280;3249;42.690;23.260;2022-10-31T11:11:52;95019.69;;;20.41;57.60
6433;BME280;3249;42.690;23.260;2022-10-31T11:14:19;95023.91;;;20.72;56.61
6433;BME280;3249;42.690;23.260;2022-10-31T11:16:48;95020.53;;;20.71;56.30
6433;BME280;3249;42.690;23.260;2022-10-31T11:19:28;95027.06;;;20.84;55.65
6433;BME280;3249;42.690;23.260;2022-10-31T11:21:53;95030.25;;;20.96;54.61
6433;BME280;3249;42.690;23.260;2022-10-31T11:24:23;95026.59;;;20.97;54.29
6433;BME280;3249;42.690;23.260;2022-10-31T11:26:51;95018.75;;;20.97;53.76
6433;BME280;3249;42.690;23.260;2022-10-31T11:29:27;95016.63;;;20.89;55.00
6433;BME280;3249;42.690;23.260;2022-10-31T11:31:55;95017.69;;;21.13;52.17
6433;BME280;3249;42.690;23.260;2022-10-31T11:34:36;95015.84;;;21.13;51.35
6433;BME280;3249;42.690;23.260;2022-10-31T11:39:44;95010.34;;;21.00;53.27
6433;BME280;3249;42.690;23.260;2022-10-31T11:42:10;94997.78;;;21.02;52.55
6433;BME280;3249;42.690;23.260;2022-10-31T11:44:36;95007.19;;;21.23;52.51
6433;BME280;3249;42.690;23.260;2022-10-31T11:47:13;95004.59;;;21.18;52.18
6433;BME280;3249;42.690;23.260;2022-10-31T11:49:42;94975.28;;;20.96;51.13
6433;BME280;3249;42.690;23.260;2022-10-31T11:52:18;94975.50;;;20.89;51.95
6433;BME280;3249;42.690;23.260;2022-10-31T11:54:54;94991.50;;;21.03;59.90
6433;BME280;3249;42.690;23.260;2022-10-31T11:57:41;94973.97;;;21.08;62.71
6433;BME280;3249;42.690;23.260;2022-10-31T12:00:38;94994.06;;;21.43;52.98
6433;BME280;3249;42.690;23.260;2022-10-31T12:08:37;94990.38;;;21.64;49.92
6433;BME280;3249;42.690;23.260;2022-10-31T12:13:37;94992.41;;;21.82;51.46
6433;BME280;3249;42.690;23.260;2022-10-31T12:16:25;94989.28;;;21.70;50.77
6433;BME280;3249;42.690;23.260;2022-10-31T12:19:00;94974.94;;;21.47;49.56
6433;BME280;3249;42.690;23.260;2022-10-31T12:30:23;94991.84;;;21.95;49.43
6433;BME280;3249;42.690;23.260;2022-10-31T13:01:04;94978.47;;;22.02;51.20
6433;BME280;3249;42.690;23.260;2022-10-31T13:03:46;94972.88;;;22.13;49.74
6433;BME280;3249;42.690;23.260;2022-10-31T13:06:18;94982.78;;;22.26;47.43
6433;BME280;3249;42.690;23.260;2022-10-31T13:08:52;94983.31;;;22.23;46.79
6433;BME280;3249;42.690;23.260;2022-10-31T13:11:25;94982.31;;;22.14;49.64
6433;BME280;3249;42.690;23.260;2022-10-31T13:13:58;94986.22;;;22.17;48.10
6433;BME280;3249;42.690;23.260;2022-10-31T13:16:32;94989.13;;;22.15;47.13
6433;BME280;3249;42.690;23.260;2022-10-31T13:19:07;94972.19;;;21.92;48.83
6433;BME280;3249;42.690;23.260;2022-10-31T13:22:07;94970.91;;;21.90;60.96
6433;BME280;3249;42.690;23.260;2022-10-31T13:27:26;94974.22;;;22.11;50.10
6433;BME280;3249;42.690;23.260;2022-10-31T13:30:14;94979.47;;;22.11;51.07
6433;BME280;3249;42.690;23.260;2022-10-31T13:32:48;94974.50;;;21.99;56.00
6433;BME280;3249;42.690;23.260;2022-10-31T13:35:21;94958.22;;;22.07;49.56
6433;BME280;3249;42.690;23.260;2022-10-31T13:37:57;94983.31;;;22.23;47.43
6433;BME280;3249;42.690;23.260;2022-10-31T13:40:45;94981.47;;;22.24;47.28
6433;BME280;3249;42.690;23.260;2022-10-31T13:43:27;94977.56;;;22.21;47.44
6433;BME280;3249;42.690;23.260;2022-10-31T13:45:55;94982.59;;;22.13;47.28
6433;BME280;3249;42.690;23.260;2022-10-31T13:51:04;94974.47;;;22.09;46.61
6433;BME280;3249;42.690;23.260;2022-10-31T13:56:16;94966.25;;;21.62;49.82
6433;BME280;3249;42.690;23.260;2022-10-31T14:01:22;94980.88;;;21.83;47.80
6433;BME280;3249;42.690;23.260;2022-10-31T14:04:06;94972.53;;;21.76;47.40
6433;BME280;3249;42.690;23.260;2022-10-31T14:11:47;94986.66;;;21.70;48.67
6433;BME280;3249;42.690;23.260;2022-10-31T14:14:14;94982.75;;;21.57;49.23
6433;BME280;3249;42.690;23.260;2022-10-31T14:16:43;94969.94;;;21.56;48.88
6433;BME280;3249;42.690;23.260;2022-10-31T14:19:27;94978.81;;;21.65;48.16
6433;BME280;3249;42.690;23.260;2022-10-31T14:21:53;94982.75;;;21.72;47.76
6433;BME280;3249;42.690;23.260;2022-10-31T14:26:58;94990.41;;;21.49;49.13
6433;BME280;3249;42.690;23.260;2022-10-31T14:29:32;94992.97;;;21.59;48.63
6433;BME280;3249;42.690;23.260;2022-10-31T14:32:03;94995.88;;;21.57;45.78
6433;BME280;3249;42.690;23.260;2022-10-31T14:34:38;94990.38;;;21.54;44.47
6433;BME280;3249;42.690;23.260;2022-10-31T14:40:21;94992.47;;;21.57;42.71
6433;BME280;3249;42.690;23.260;2022-10-31T14:51:38;94964.28;;;20.94;45.78
6433;BME280;3249;42.690;23.260;2022-10-31T14:54:06;94979.72;;;21.00;46.96
6433;BME280;3249;42.690;23.260;2022-10-31T14:56:35;94988.38;;;21.01;47.97
6433;BME280;3249;42.690;23.260;2022-10-31T14:59:06;94990.72;;;20.97;46.98
6433;BME280;3249;42.690;23.260;2022-10-31T15:01:36;94986.00;;;21.04;45.29
6433;BME280;3249;42.690;23.260;2022-10-31T15:04:23;94985.72;;;20.91;46.41
6433;BME280;3249;42.690;23.260;2022-10-31T15:06:54;94985.97;;;20.89;46.24
6433;BME280;3249;42.690;23.260;2022-10-31T15:09:27;94982.03;;;20.72;47.46
6433;BME280;3249;42.690;23.260;2022-10-31T15:11:53;94982.56;;;20.84;47.21
6433;BME280;3249;42.690;23.260;2022-10-31T15:14:27;94983.38;;;20.79;48.34
6433;BME280;3249;42.690;23.260;2022-10-31T15:16:53;94983.84;;;20.46;49.83
6433;BME280;3249;42.690;23.260;2022-10-31T15:19:26;94987.75;;;20.29;52.20
6433;BME280;3249;42.690;23.260;2022-10-31T15:21:54;94990.06;;;20.15;53.95
6433;BME280;3249;42.690;23.260;2022-10-31T15:24:23;94994.25;;;20.11;54.79
6433;BME280;3249;42.690;23.260;2022-10-31T15:26:51;94989.69;;;19.92;56.38